sensor_id;sensor_type;location;lat;lon;timestamp;temperature;humidity
48535;DHT22;34323;52.022;5.686;2023-05-07T00:00:32;21.40;99.90
48535;DHT22;34323;52.022;5.686;2023-05-07T00:02:59;21.30;99.90
48535;DHT22;34323;52.022;5.686;2023-05-07T00:05:25;21.30;99.90
48535;DHT22;34323;52.022;5.686;2023-05-07T00:07:51;21.40;99.90
48535;DHT22;34323;52.022;5.686;2023-05-07T00:10:18;21.30;99.90
48535;DHT22;34323;52.022;5.686;2023-05-07T00:12:43;21.20;99.90
48535;DHT22;34323;52.022;5.686;2023-05-07T00:15:09;21.20;99.90
48535;DHT22;34323;52.022;5.686;2023-05-07T00:17:35;21.00;99.90
48535;DHT22;34323;52.022;5.686;2023-05-07T00:20:01;21.00;99.90
48535;DHT22;34323;52.022;5.686;2023-05-07T00:22:26;21.00;99.90
48535;DHT22;34323;52.022;5.686;2023-05-07T00:24:52;21.00;99.90
48535;DHT22;34323;52.022;5.686;2023-05-07T00:27:17;20.90;99.90
48535;DHT22;34323;52.022;5.686;2023-05-07T00:29:43;21.00;99.90
48535;DHT22;34323;52.022;5.686;2023-05-07T00:32:08;21.00;99.90
48535;DHT22;34323;52.022;5.686;2023-05-07T00:34:34;21.00;99.90
48535;DHT22;34323;52.022;5.686;2023-05-07T00:37:01;20.90;99.90
48535;DHT22;34323;52.022;5.686;2023-05-07T00:39:27;20.80;99.90
48535;DHT22;34323;52.022;5.686;2023-05-07T00:41:52;20.70;99.90
48535;DHT22;34323;52.022;5.686;2023-05-07T00:44:18;20.60;99.90
48535;DHT22;34323;52.022;5.686;2023-05-07T00:46:43;20.60;99.90
48535;DHT22;34323;52.022;5.686;2023-05-07T00:49:10;20.60;99.90
48535;DHT22;34323;52.022;5.686;2023-05-07T00:51:36;20.50;99.90
48535;DHT22;34323;52.022;5.686;2023-05-07T00:54:02;20.40;99.90
48535;DHT22;34323;52.022;5.686;2023-05-07T00:56:28;20.30;99.90
48535;DHT22;34323;52.022;5.686;2023-05-07T00:58:54;20.40;99.90
48535;DHT22;34323;52.022;5.686;2023-05-07T01:01:20;20.40;99.90
48535;DHT22;34323;52.022;5.686;2023-05-07T01:03:46;20.30;99.90
48535;DHT22;34323;52.022;5.686;2023-05-07T01:06:13;20.40;99.90
48535;DHT22;34323;52.022;5.686;2023-05-07T01:08:42;20.40;99.90
48535;DHT22;34323;52.022;5.686;2023-05-07T01:11:08;20.40;99.90
48535;DHT22;34323;52.022;5.686;2023-05-07T01:13:35;20.40;99.90
48535;DHT22;34323;52.022;5.686;2023-05-07T01:16:02;20.30;99.90
48535;DHT22;34323;52.022;5.686;2023-05-07T01:18:28;20.20;99.90
48535;DHT22;34323;52.022;5.686;2023-05-07T01:20:57;20.20;99.90
48535;DHT22;34323;52.022;5.686;2023-05-07T01:23:24;20.20;99.90
48535;DHT22;34323;52.022;5.686;2023-05-07T01:25:54;20.30;99.90
48535;DHT22;34323;52.022;5.686;2023-05-07T01:28:20;20.30;99.90
48535;DHT22;34323;52.022;5.686;2023-05-07T01:30:49;20.40;99.90
48535;DHT22;34323;52.022;5.686;2023-05-07T01:33:19;20.40;99.90
48535;DHT22;34323;52.022;5.686;2023-05-07T01:35:50;20.50;99.90
48535;DHT22;34323;52.022;5.686;2023-05-07T01:38:18;20.60;99.90
48535;DHT22;34323;52.022;5.686;2023-05-07T01:40:44;20.60;99.90
48535;DHT22;34323;52.022;5.686;2023-05-07T01:43:10;20.70;99.90
48535;DHT22;34323;52.022;5.686;2023-05-07T01:45:36;20.80;99.90
48535;DHT22;34323;52.022;5.686;2023-05-07T01:48:02;20.90;99.90
48535;DHT22;34323;52.022;5.686;2023-05-07T01:50:29;20.80;99.90
48535;DHT22;34323;52.022;5.686;2023-05-07T01:52:56;20.80;99.90
48535;DHT22;34323;52.022;5.686;2023-05-07T01:55:21;20.70;99.90
48535;DHT22;34323;52.022;5.686;2023-05-07T01:57:47;20.80;99.90
48535;DHT22;34323;52.022;5.686;2023-05-07T02:00:13;20.80;99.90
48535;DHT22;34323;52.022;5.686;2023-05-07T02:02:38;20.80;99.90
48535;DHT22;34323;52.022;5.686;2023-05-07T02:05:04;20.70;99.90
48535;DHT22;34323;52.022;5.686;2023-05-07T02:07:30;20.50;99.90
48535;DHT22;34323;52.022;5.686;2023-05-07T02:09:55;20.50;99.90
48535;DHT22;34323;52.022;5.686;2023-05-07T02:12:22;20.60;99.90
48535;DHT22;34323;52.022;5.686;2023-05-07T02:14:48;20.60;99.90
48535;DHT22;34323;52.022;5.686;2023-05-07T02:17:13;20.60;99.90
48535;DHT22;34323;52.022;5.686;2023-05-07T02:19:39;20.60;99.90
48535;DHT22;34323;52.022;5.686;2023-05-07T02:22:04;20.60;99.90
48535;DHT22;34323;52.022;5.686;2023-05-07T02:24:30;20.70;99.90
48535;DHT22;34323;52.022;5.686;2023-05-07T02:26:56;20.70;99.90
48535;DHT22;34323;52.022;5.686;2023-05-07T02:29:21;20.70;99.90
48535;DHT22;34323;52.022;5.686;2023-05-07T02:31:47;20.80;99.90
48535;DHT22;34323;52.022;5.686;2023-05-07T02:34:16;20.80;99.90
48535;DHT22;34323;52.022;5.686;2023-05-07T02:36:42;20.90;99.90
48535;DHT22;34323;52.022;5.686;2023-05-07T02:39:07;20.90;99.90
48535;DHT22;34323;52.022;5.686;2023-05-07T02:41:33;20.90;99.90
48535;DHT22;34323;52.022;5.686;2023-05-07T02:43:58;20.90;99.90
48535;DHT22;34323;52.022;5.686;2023-05-07T02:46:24;21.00;99.90
48535;DHT22;34323;52.022;5.686;2023-05-07T02:48:49;20.90;99.90
48535;DHT22;34323;52.022;5.686;2023-05-07T02:51:22;20.80;99.90
48535;DHT22;34323;52.022;5.686;2023-05-07T02:53:48;20.80;99.90
48535;DHT22;34323;52.022;5.686;2023-05-07T02:56:13;20.90;99.90
48535;DHT22;34323;52.022;5.686;2023-05-07T02:58:39;20.90;99.90
48535;DHT22;34323;52.022;5.686;2023-05-07T03:01:05;20.70;99.90
48535;DHT22;34323;52.022;5.686;2023-05-07T03:03:31;20.60;99.90
48535;DHT22;34323;52.022;5.686;2023-05-07T03:05:56;20.70;99.90
48535;DHT22;34323;52.022;5.686;2023-05-07T03:08:22;20.70;99.90
48535;DHT22;34323;52.022;5.686;2023-05-07T03:10:48;20.80;99.90
48535;DHT22;34323;52.022;5.686;2023-05-07T03:13:14;20.80;99.90
48535;DHT22;34323;52.022;5.686;2023-05-07T03:15:40;20.70;99.90
48535;DHT22;34323;52.022;5.686;2023-05-07T03:18:05;20.70;99.90
48535;DHT22;34323;52.022;5.686;2023-05-07T03:20:31;20.60;99.90
48535;DHT22;34323;52.022;5.686;2023-05-07T03:22:57;20.50;99.90
48535;DHT22;34323;52.022;5.686;2023-05-07T03:25:22;20.50;99.90
48535;DHT22;34323;52.022;5.686;2023-05-07T03:27:48;20.40;99.90
48535;DHT22;34323;52.022;5.686;2023-05-07T03:30:14;20.30;99.90
48535;DHT22;34323;52.022;5.686;2023-05-07T03:32:39;20.30;99.90
48535;DHT22;34323;52.022;5.686;2023-05-07T03:35:05;20.20;99.90
48535;DHT22;34323;52.022;5.686;2023-05-07T03:37:31;20.20;99.90
48535;DHT22;34323;52.022;5.686;2023-05-07T03:39:56;20.20;99.90
48535;DHT22;34323;52.022;5.686;2023-05-07T03:42:22;20.40;99.90
48535;DHT22;34323;52.022;5.686;2023-05-07T03:44:48;20.40;99.90
48535;DHT22;34323;52.022;5.686;2023-05-07T03:47:14;20.40;99.90
48535;DHT22;34323;52.022;5.686;2023-05-07T03:49:39;20.50;99.90
48535;DHT22;34323;52.022;5.686;2023-05-07T03:52:05;20.40;99.90
48535;DHT22;34323;52.022;5.686;2023-05-07T03:54:31;20.40;99.90
48535;DHT22;34323;52.022;5.686;2023-05-07T03:56:56;20.30;99.90
48535;DHT22;34323;52.022;5.686;2023-05-07T03:59:22;20.30;99.90
48535;DHT22;34323;52.022;5.686;2023-05-07T04:01:48;20.20;99.90
48535;DHT22;34323;52.022;5.686;2023-05-07T04:04:16;20.20;99.90
48535;DHT22;34323;52.022;5.686;2023-05-07T04:06:42;20.30;99.90
48535;DHT22;34323;52.022;5.686;2023-05-07T04:09:07;20.20;99.90
48535;DHT22;34323;52.022;5.686;2023-05-07T04:11:33;20.20;99.90
48535;DHT22;34323;52.022;5.686;2023-05-07T04:13:59;20.10;99.90
48535;DHT22;34323;52.022;5.686;2023-05-07T04:16:24;20.30;99.90
48535;DHT22;34323;52.022;5.686;2023-05-07T04:18:50;20.20;99.90
48535;DHT22;34323;52.022;5.686;2023-05-07T04:21:20;20.30;99.90
48535;DHT22;34323;52.022;5.686;2023-05-07T04:23:46;20.40;99.90
48535;DHT22;34323;52.022;5.686;2023-05-07T04:26:12;20.30;99.90
48535;DHT22;34323;52.022;5.686;2023-05-07T04:28:38;20.30;99.90
48535;DHT22;34323;52.022;5.686;2023-05-07T04:31:04;20.30;99.90
48535;DHT22;34323;52.022;5.686;2023-05-07T04:33:31;20.40;99.90
48535;DHT22;34323;52.022;5.686;2023-05-07T04:35:56;20.40;99.90
48535;DHT22;34323;52.022;5.686;2023-05-07T04:38:22;20.60;99.90
48535;DHT22;34323;52.022;5.686;2023-05-07T04:40:49;20.60;99.90
48535;DHT22;34323;52.022;5.686;2023-05-07T04:43:14;20.60;99.90
48535;DHT22;34323;52.022;5.686;2023-05-07T04:45:41;20.50;99.90
48535;DHT22;34323;52.022;5.686;2023-05-07T04:48:08;20.50;99.90
48535;DHT22;34323;52.022;5.686;2023-05-07T04:50:34;20.50;99.90
48535;DHT22;34323;52.022;5.686;2023-05-07T04:52:59;20.60;99.90
48535;DHT22;34323;52.022;5.686;2023-05-07T04:55:25;20.60;99.90
48535;DHT22;34323;52.022;5.686;2023-05-07T04:57:51;20.40;99.90
48535;DHT22;34323;52.022;5.686;2023-05-07T05:00:17;20.40;99.90
48535;DHT22;34323;52.022;5.686;2023-05-07T05:02:45;20.30;99.90
48535;DHT22;34323;52.022;5.686;2023-05-07T05:05:11;20.30;99.90
48535;DHT22;34323;52.022;5.686;2023-05-07T05:07:36;20.40;99.90
48535;DHT22;34323;52.022;5.686;2023-05-07T05:10:02;20.40;99.90
48535;DHT22;34323;52.022;5.686;2023-05-07T05:12:29;20.40;99.90
48535;DHT22;34323;52.022;5.686;2023-05-07T05:14:55;20.40;99.90
48535;DHT22;34323;52.022;5.686;2023-05-07T05:17:21;20.40;99.90
48535;DHT22;34323;52.022;5.686;2023-05-07T05:19:46;20.60;99.90
48535;DHT22;34323;52.022;5.686;2023-05-07T05:22:12;20.60;99.90
48535;DHT22;34323;52.022;5.686;2023-05-07T05:24:37;20.60;99.90
48535;DHT22;34323;52.022;5.686;2023-05-07T05:27:03;20.60;99.90
48535;DHT22;34323;52.022;5.686;2023-05-07T05:29:29;20.60;99.90
48535;DHT22;34323;52.022;5.686;2023-05-07T05:31:56;20.60;99.90
48535;DHT22;34323;52.022;5.686;2023-05-07T05:34:22;20.50;99.90
48535;DHT22;34323;52.022;5.686;2023-05-07T05:36:47;20.40;99.90
48535;DHT22;34323;52.022;5.686;2023-05-07T05:39:13;20.40;99.90
48535;DHT22;34323;52.022;5.686;2023-05-07T05:41:39;20.30;99.90
48535;DHT22;34323;52.022;5.686;2023-05-07T05:44:05;20.40;99.90
48535;DHT22;34323;52.022;5.686;2023-05-07T05:46:31;20.20;99.90
48535;DHT22;34323;52.022;5.686;2023-05-07T05:48:56;20.40;99.90
48535;DHT22;34323;52.022;5.686;2023-05-07T05:51:22;20.30;99.90
48535;DHT22;34323;52.022;5.686;2023-05-07T05:53:48;20.40;99.90
48535;DHT22;34323;52.022;5.686;2023-05-07T05:56:14;20.40;99.90
48535;DHT22;34323;52.022;5.686;2023-05-07T05:58:40;20.40;99.90
48535;DHT22;34323;52.022;5.686;2023-05-07T06:01:06;20.40;99.90
48535;DHT22;34323;52.022;5.686;2023-05-07T06:03:32;20.50;99.90
48535;DHT22;34323;52.022;5.686;2023-05-07T06:06:00;20.50;99.90
48535;DHT22;34323;52.022;5.686;2023-05-07T06:08:28;20.50;99.90
48535;DHT22;34323;52.022;5.686;2023-05-07T06:10:54;20.30;99.90
48535;DHT22;34323;52.022;5.686;2023-05-07T06:13:20;20.30;99.90
48535;DHT22;34323;52.022;5.686;2023-05-07T06:15:45;20.30;99.90
48535;DHT22;34323;52.022;5.686;2023-05-07T06:18:11;20.30;99.90
48535;DHT22;34323;52.022;5.686;2023-05-07T06:20:37;20.30;99.90
48535;DHT22;34323;52.022;5.686;2023-05-07T06:23:02;20.60;99.90
48535;DHT22;34323;52.022;5.686;2023-05-07T06:25:28;20.60;99.90
48535;DHT22;34323;52.022;5.686;2023-05-07T06:27:53;20.50;99.90
48535;DHT22;34323;52.022;5.686;2023-05-07T06:30:19;20.80;99.90
48535;DHT22;34323;52.022;5.686;2023-05-07T06:32:44;21.10;99.90
48535;DHT22;34323;52.022;5.686;2023-05-07T06:35:10;21.30;99.90
48535;DHT22;34323;52.022;5.686;2023-05-07T06:37:36;21.40;99.90
48535;DHT22;34323;52.022;5.686;2023-05-07T06:40:04;21.50;99.90
48535;DHT22;34323;52.022;5.686;2023-05-07T06:42:30;21.40;99.90
48535;DHT22;34323;52.022;5.686;2023-05-07T06:44:56;21.30;99.90
48535;DHT22;34323;52.022;5.686;2023-05-07T06:47:21;21.20;99.90
48535;DHT22;34323;52.022;5.686;2023-05-07T06:49:47;21.30;99.90
48535;DHT22;34323;52.022;5.686;2023-05-07T06:52:12;21.30;99.90
48535;DHT22;34323;52.022;5.686;2023-05-07T06:54:38;21.40;99.90
48535;DHT22;34323;52.022;5.686;2023-05-07T06:57:03;21.40;99.90
48535;DHT22;34323;52.022;5.686;2023-05-07T06:59:29;21.80;99.90
48535;DHT22;34323;52.022;5.686;2023-05-07T07:01:54;22.00;99.90
48535;DHT22;34323;52.022;5.686;2023-05-07T07:04:20;21.80;99.90
48535;DHT22;34323;52.022;5.686;2023-05-07T07:06:48;22.00;99.90
48535;DHT22;34323;52.022;5.686;2023-05-07T07:09:13;21.90;99.90
48535;DHT22;34323;52.022;5.686;2023-05-07T07:11:39;21.80;99.90
48535;DHT22;34323;52.022;5.686;2023-05-07T07:14:05;21.90;99.90
48535;DHT22;34323;52.022;5.686;2023-05-07T07:16:31;21.90;99.90
48535;DHT22;34323;52.022;5.686;2023-05-07T07:18:56;22.00;99.90
48535;DHT22;34323;52.022;5.686;2023-05-07T07:21:22;21.90;99.90
48535;DHT22;34323;52.022;5.686;2023-05-07T07:23:47;22.10;99.90
48535;DHT22;34323;52.022;5.686;2023-05-07T07:26:13;22.20;99.90
48535;DHT22;34323;52.022;5.686;2023-05-07T07:28:56;21.90;99.90
48535;DHT22;34323;52.022;5.686;2023-05-07T07:31:22;21.90;99.90
48535;DHT22;34323;52.022;5.686;2023-05-07T07:33:47;22.00;99.90
48535;DHT22;34323;52.022;5.686;2023-05-07T07:36:14;22.10;99.90
48535;DHT22;34323;52.022;5.686;2023-05-07T07:38:40;22.20;99.90
48535;DHT22;34323;52.022;5.686;2023-05-07T07:41:08;22.10;99.90
48535;DHT22;34323;52.022;5.686;2023-05-07T07:43:34;22.20;99.90
48535;DHT22;34323;52.022;5.686;2023-05-07T07:45:59;22.30;99.90
48535;DHT22;34323;52.022;5.686;2023-05-07T07:48:25;22.30;99.90
48535;DHT22;34323;52.022;5.686;2023-05-07T07:50:50;22.30;99.90
48535;DHT22;34323;52.022;5.686;2023-05-07T07:53:17;22.50;99.90
48535;DHT22;34323;52.022;5.686;2023-05-07T07:55:42;22.50;99.90
48535;DHT22;34323;52.022;5.686;2023-05-07T07:58:08;22.50;99.90
48535;DHT22;34323;52.022;5.686;2023-05-07T08:00:33;22.50;99.90
48535;DHT22;34323;52.022;5.686;2023-05-07T08:02:59;22.40;99.90
48535;DHT22;34323;52.022;5.686;2023-05-07T08:05:25;22.50;99.90
48535;DHT22;34323;52.022;5.686;2023-05-07T08:07:51;22.40;99.90
48535;DHT22;34323;52.022;5.686;2023-05-07T08:10:18;22.40;99.90
48535;DHT22;34323;52.022;5.686;2023-05-07T08:12:50;22.40;99.90
48535;DHT22;34323;52.022;5.686;2023-05-07T08:15:16;22.50;99.90
48535;DHT22;34323;52.022;5.686;2023-05-07T08:17:42;22.50;99.90
48535;DHT22;34323;52.022;5.686;2023-05-07T08:20:08;22.70;99.90
48535;DHT22;34323;52.022;5.686;2023-05-07T08:22:37;22.60;99.90
48535;DHT22;34323;52.022;5.686;2023-05-07T08:25:03;22.50;99.90
48535;DHT22;34323;52.022;5.686;2023-05-07T08:27:29;22.50;99.90
48535;DHT22;34323;52.022;5.686;2023-05-07T08:29:54;22.70;99.90
48535;DHT22;34323;52.022;5.686;2023-05-07T08:32:20;22.90;99.90
48535;DHT22;34323;52.022;5.686;2023-05-07T08:34:46;23.00;99.90
48535;DHT22;34323;52.022;5.686;2023-05-07T08:37:12;22.90;99.90
48535;DHT22;34323;52.022;5.686;2023-05-07T08:39:37;22.70;99.90
48535;DHT22;34323;52.022;5.686;2023-05-07T08:42:04;22.80;99.90
48535;DHT22;34323;52.022;5.686;2023-05-07T08:44:33;22.80;99.90
48535;DHT22;34323;52.022;5.686;2023-05-07T08:47:02;23.20;99.90
48535;DHT22;34323;52.022;5.686;2023-05-07T08:49:28;23.50;99.90
48535;DHT22;34323;52.022;5.686;2023-05-07T08:51:54;23.80;99.90
48535;DHT22;34323;52.022;5.686;2023-05-07T08:54:21;23.70;99.90
48535;DHT22;34323;52.022;5.686;2023-05-07T08:56:46;23.70;99.90
48535;DHT22;34323;52.022;5.686;2023-05-07T08:59:12;23.60;99.90
48535;DHT22;34323;52.022;5.686;2023-05-07T09:01:37;23.60;99.90
48535;DHT22;34323;52.022;5.686;2023-05-07T09:04:04;23.60;99.90
48535;DHT22;34323;52.022;5.686;2023-05-07T09:06:30;23.60;99.90
48535;DHT22;34323;52.022;5.686;2023-05-07T09:08:56;23.30;99.90
48535;DHT22;34323;52.022;5.686;2023-05-07T09:11:24;23.30;99.90
48535;DHT22;34323;52.022;5.686;2023-05-07T09:13:54;23.50;99.90
48535;DHT22;34323;52.022;5.686;2023-05-07T09:16:21;23.60;99.90
48535;DHT22;34323;52.022;5.686;2023-05-07T09:18:48;23.80;99.90
48535;DHT22;34323;52.022;5.686;2023-05-07T09:21:16;23.80;99.90
48535;DHT22;34323;52.022;5.686;2023-05-07T09:23:42;23.90;99.90
48535;DHT22;34323;52.022;5.686;2023-05-07T09:26:08;24.00;99.90
48535;DHT22;34323;52.022;5.686;2023-05-07T09:28:40;24.30;99.90
48535;DHT22;34323;52.022;5.686;2023-05-07T09:31:07;24.00;99.90
48535;DHT22;34323;52.022;5.686;2023-05-07T09:33:32;23.90;99.90
48535;DHT22;34323;52.022;5.686;2023-05-07T09:35:58;24.00;99.90
48535;DHT22;34323;52.022;5.686;2023-05-07T09:38:23;24.30;99.90
48535;DHT22;34323;52.022;5.686;2023-05-07T09:41:08;24.30;99.90
48535;DHT22;34323;52.022;5.686;2023-05-07T09:43:35;24.60;99.90
48535;DHT22;34323;52.022;5.686;2023-05-07T09:46:06;24.60;99.90
48535;DHT22;34323;52.022;5.686;2023-05-07T09:48:37;24.80;99.90
48535;DHT22;34323;52.022;5.686;2023-05-07T09:51:09;24.80;99.90
48535;DHT22;34323;52.022;5.686;2023-05-07T09:53:38;25.00;99.90
48535;DHT22;34323;52.022;5.686;2023-05-07T09:56:05;25.00;99.90
48535;DHT22;34323;52.022;5.686;2023-05-07T09:58:32;25.00;99.90
48535;DHT22;34323;52.022;5.686;2023-05-07T10:00:58;25.00;99.90
48535;DHT22;34323;52.022;5.686;2023-05-07T10:03:25;25.20;99.90
48535;DHT22;34323;52.022;5.686;2023-05-07T10:05:51;25.40;99.90
48535;DHT22;34323;52.022;5.686;2023-05-07T10:08:18;25.60;99.90
48535;DHT22;34323;52.022;5.686;2023-05-07T10:10:45;25.70;99.90
48535;DHT22;34323;52.022;5.686;2023-05-07T10:13:11;25.80;99.90
48535;DHT22;34323;52.022;5.686;2023-05-07T10:15:37;25.80;99.90
48535;DHT22;34323;52.022;5.686;2023-05-07T10:18:04;25.50;99.90
48535;DHT22;34323;52.022;5.686;2023-05-07T10:20:33;25.20;99.90
48535;DHT22;34323;52.022;5.686;2023-05-07T10:22:59;25.20;99.90
48535;DHT22;34323;52.022;5.686;2023-05-07T10:25:32;25.20;99.90
48535;DHT22;34323;52.022;5.686;2023-05-07T10:28:04;25.00;99.90
48535;DHT22;34323;52.022;5.686;2023-05-07T10:30:58;25.20;99.90
48535;DHT22;34323;52.022;5.686;2023-05-07T10:33:28;25.30;99.90
48535;DHT22;34323;52.022;5.686;2023-05-07T10:36:00;25.70;99.90
48535;DHT22;34323;52.022;5.686;2023-05-07T10:38:27;25.80;99.90
48535;DHT22;34323;52.022;5.686;2023-05-07T10:40:53;25.90;99.90
48535;DHT22;34323;52.022;5.686;2023-05-07T10:43:19;25.70;99.90
48535;DHT22;34323;52.022;5.686;2023-05-07T10:51:32;26.20;99.90
48535;DHT22;34323;52.022;5.686;2023-05-07T10:56:40;26.20;99.90
48535;DHT22;34323;52.022;5.686;2023-05-07T10:59:31;26.30;99.90
48535;DHT22;34323;52.022;5.686;2023-05-07T11:01:59;26.60;99.90
48535;DHT22;34323;52.022;5.686;2023-05-07T11:04:25;26.60;99.90
48535;DHT22;34323;52.022;5.686;2023-05-07T11:07:24;26.80;99.90
48535;DHT22;34323;52.022;5.686;2023-05-07T11:09:57;26.60;99.90
48535;DHT22;34323;52.022;5.686;2023-05-07T11:15:08;26.70;99.90
48535;DHT22;34323;52.022;5.686;2023-05-07T11:17:35;26.70;99.90
48535;DHT22;34323;52.022;5.686;2023-05-07T11:20:17;26.80;99.90
48535;DHT22;34323;52.022;5.686;2023-05-07T11:22:42;27.10;99.90
48535;DHT22;34323;52.022;5.686;2023-05-07T11:25:08;27.20;99.90
48535;DHT22;34323;52.022;5.686;2023-05-07T11:27:34;27.10;99.90
48535;DHT22;34323;52.022;5.686;2023-05-07T11:29:59;26.90;99.90
48535;DHT22;34323;52.022;5.686;2023-05-07T11:32:31;26.60;99.90
48535;DHT22;34323;52.022;5.686;2023-05-07T11:34:58;26.40;99.90
48535;DHT22;34323;52.022;5.686;2023-05-07T11:37:25;26.50;99.90
48535;DHT22;34323;52.022;5.686;2023-05-07T11:40:02;26.50;99.90
48535;DHT22;34323;52.022;5.686;2023-05-07T11:42:31;26.60;99.90
48535;DHT22;34323;52.022;5.686;2023-05-07T11:44:57;26.70;99.90
48535;DHT22;34323;52.022;5.686;2023-05-07T11:47:24;26.50;99.90
48535;DHT22;34323;52.022;5.686;2023-05-07T11:49:52;26.50;99.90
48535;DHT22;34323;52.022;5.686;2023-05-07T11:52:19;26.60;99.90
48535;DHT22;34323;52.022;5.686;2023-05-07T11:54:58;26.80;99.90
48535;DHT22;34323;52.022;5.686;2023-05-07T11:57:25;27.20;99.90
48535;DHT22;34323;52.022;5.686;2023-05-07T11:59:58;27.60;99.90
48535;DHT22;34323;52.022;5.686;2023-05-07T12:02:24;27.50;99.90
48535;DHT22;34323;52.022;5.686;2023-05-07T12:04:53;27.50;99.90
48535;DHT22;34323;52.022;5.686;2023-05-07T12:07:19;27.20;99.90
48535;DHT22;34323;52.022;5.686;2023-05-07T12:09:45;26.70;99.90
48535;DHT22;34323;52.022;5.686;2023-05-07T12:12:11;26.60;99.90
48535;DHT22;34323;52.022;5.686;2023-05-07T12:14:45;26.60;99.90
48535;DHT22;34323;52.022;5.686;2023-05-07T12:17:12;26.80;99.90
48535;DHT22;34323;52.022;5.686;2023-05-07T12:19:42;26.60;99.90
48535;DHT22;34323;52.022;5.686;2023-05-07T12:22:08;26.50;99.90
48535;DHT22;34323;52.022;5.686;2023-05-07T12:24:48;26.20;99.90
48535;DHT22;34323;52.022;5.686;2023-05-07T12:27:16;26.10;99.90
48535;DHT22;34323;52.022;5.686;2023-05-07T12:29:46;25.90;99.90
48535;DHT22;34323;52.022;5.686;2023-05-07T12:32:19;26.00;99.90
48535;DHT22;34323;52.022;5.686;2023-05-07T12:34:45;26.10;99.90
48535;DHT22;34323;52.022;5.686;2023-05-07T12:37:12;26.30;99.90
48535;DHT22;34323;52.022;5.686;2023-05-07T12:40:09;26.40;99.90
48535;DHT22;34323;52.022;5.686;2023-05-07T12:42:39;27.00;99.90
48535;DHT22;34323;52.022;5.686;2023-05-07T12:45:12;27.30;99.90
48535;DHT22;34323;52.022;5.686;2023-05-07T12:47:38;27.20;99.90
48535;DHT22;34323;52.022;5.686;2023-05-07T12:50:06;26.60;99.90
48535;DHT22;34323;52.022;5.686;2023-05-07T12:52:32;26.80;99.90
48535;DHT22;34323;52.022;5.686;2023-05-07T12:55:04;27.10;99.90
48535;DHT22;34323;52.022;5.686;2023-05-07T12:57:30;26.70;99.90
48535;DHT22;34323;52.022;5.686;2023-05-07T13:00:02;27.00;99.90
48535;DHT22;34323;52.022;5.686;2023-05-07T13:02:47;27.30;99.90
48535;DHT22;34323;52.022;5.686;2023-05-07T13:05:13;27.70;99.90
48535;DHT22;34323;52.022;5.686;2023-05-07T13:07:39;27.90;99.90
48535;DHT22;34323;52.022;5.686;2023-05-07T13:10:06;27.90;99.90
48535;DHT22;34323;52.022;5.686;2023-05-07T13:12:32;27.70;99.90
48535;DHT22;34323;52.022;5.686;2023-05-07T13:14:57;27.20;99.90
48535;DHT22;34323;52.022;5.686;2023-05-07T13:17:24;26.80;99.90
48535;DHT22;34323;52.022;5.686;2023-05-07T13:19:49;27.10;99.90
48535;DHT22;34323;52.022;5.686;2023-05-07T13:22:15;27.60;99.90
48535;DHT22;34323;52.022;5.686;2023-05-07T13:24:40;27.60;99.90
48535;DHT22;34323;52.022;5.686;2023-05-07T13:27:08;27.80;99.90
48535;DHT22;34323;52.022;5.686;2023-05-07T13:29:33;27.60;99.90
48535;DHT22;34323;52.022;5.686;2023-05-07T13:31:59;27.60;99.90
48535;DHT22;34323;52.022;5.686;2023-05-07T13:34:25;27.20;99.90
48535;DHT22;34323;52.022;5.686;2023-05-07T13:36:50;27.20;99.90
48535;DHT22;34323;52.022;5.686;2023-05-07T13:39:16;27.10;99.90
48535;DHT22;34323;52.022;5.686;2023-05-07T13:41:41;27.20;99.90
48535;DHT22;34323;52.022;5.686;2023-05-07T13:44:07;27.50;99.90
48535;DHT22;34323;52.022;5.686;2023-05-07T13:46:33;27.60;99.90
48535;DHT22;34323;52.022;5.686;2023-05-07T13:48:58;28.00;99.90
48535;DHT22;34323;52.022;5.686;2023-05-07T13:51:24;28.30;99.90
48535;DHT22;34323;52.022;5.686;2023-05-07T13:53:49;27.70;99.90
48535;DHT22;34323;52.022;5.686;2023-05-07T13:56:15;27.10;99.90
48535;DHT22;34323;52.022;5.686;2023-05-07T13:58:41;27.50;99.90
48535;DHT22;34323;52.022;5.686;2023-05-07T14:01:07;28.10;99.90
48535;DHT22;34323;52.022;5.686;2023-05-07T14:03:32;28.40;99.90
48535;DHT22;34323;52.022;5.686;2023-05-07T14:05:59;28.70;99.90
48535;DHT22;34323;52.022;5.686;2023-05-07T14:08:26;28.40;99.90
48535;DHT22;34323;52.022;5.686;2023-05-07T14:10:52;28.20;99.90
48535;DHT22;34323;52.022;5.686;2023-05-07T14:13:18;28.00;99.90
48535;DHT22;34323;52.022;5.686;2023-05-07T14:15:43;28.40;99.90
48535;DHT22;34323;52.022;5.686;2023-05-07T14:18:13;28.40;99.90
48535;DHT22;34323;52.022;5.686;2023-05-07T14:20:39;28.60;99.90
48535;DHT22;34323;52.022;5.686;2023-05-07T14:23:04;28.80;99.90
48535;DHT22;34323;52.022;5.686;2023-05-07T14:25:30;28.90;99.90
48535;DHT22;34323;52.022;5.686;2023-05-07T14:27:55;28.60;99.90
48535;DHT22;34323;52.022;5.686;2023-05-07T14:30:21;28.50;99.90
48535;DHT22;34323;52.022;5.686;2023-05-07T14:32:49;27.40;99.90
48535;DHT22;34323;52.022;5.686;2023-05-07T14:35:15;27.40;99.90
48535;DHT22;34323;52.022;5.686;2023-05-07T14:37:41;27.50;99.90
48535;DHT22;34323;52.022;5.686;2023-05-07T14:40:07;27.40;99.90
48535;DHT22;34323;52.022;5.686;2023-05-07T14:42:32;27.60;99.90
48535;DHT22;34323;52.022;5.686;2023-05-07T14:44:58;27.80;99.90
48535;DHT22;34323;52.022;5.686;2023-05-07T14:47:23;28.00;99.90
48535;DHT22;34323;52.022;5.686;2023-05-07T14:49:49;28.20;99.90
48535;DHT22;34323;52.022;5.686;2023-05-07T14:52:14;28.60;99.90
48535;DHT22;34323;52.022;5.686;2023-05-07T14:54:40;28.60;99.90
48535;DHT22;34323;52.022;5.686;2023-05-07T14:57:08;28.50;99.90
48535;DHT22;34323;52.022;5.686;2023-05-07T14:59:33;28.50;99.90
48535;DHT22;34323;52.022;5.686;2023-05-07T15:01:59;28.40;99.90
48535;DHT22;34323;52.022;5.686;2023-05-07T15:04:25;28.00;99.90
48535;DHT22;34323;52.022;5.686;2023-05-07T15:06:50;28.00;99.90
48535;DHT22;34323;52.022;5.686;2023-05-07T15:09:17;28.00;99.90
48535;DHT22;34323;52.022;5.686;2023-05-07T15:11:42;27.70;99.90
48535;DHT22;34323;52.022;5.686;2023-05-07T15:14:08;27.90;99.90
48535;DHT22;34323;52.022;5.686;2023-05-07T15:16:34;28.00;99.90
48535;DHT22;34323;52.022;5.686;2023-05-07T15:18:59;27.90;99.90
48535;DHT22;34323;52.022;5.686;2023-05-07T15:21:25;27.90;99.90
48535;DHT22;34323;52.022;5.686;2023-05-07T15:23:52;28.00;99.90
48535;DHT22;34323;52.022;5.686;2023-05-07T15:26:17;28.00;99.90
48535;DHT22;34323;52.022;5.686;2023-05-07T15:28:43;27.90;99.90
48535;DHT22;34323;52.022;5.686;2023-05-07T15:31:08;27.70;99.90
48535;DHT22;34323;52.022;5.686;2023-05-07T15:33:34;27.50;99.90
48535;DHT22;34323;52.022;5.686;2023-05-07T15:36:00;27.10;99.90
48535;DHT22;34323;52.022;5.686;2023-05-07T15:38:26;26.30;99.90